createdAt,value
2019-03-12T04:00:58.241Z,90.00
2019-03-12T04:03:26.814Z,90.00
2019-03-12T04:05:55.374Z,89.80
2019-03-12T04:08:23.952Z,89.90
2019-03-12T04:10:52.519Z,90.00
2019-03-12T04:13:21.076Z,89.80
2019-03-12T04:15:50.392Z,90.00
2019-03-12T04:18:18.936Z,90.10
2019-03-12T04:20:47.486Z,90.10
2019-03-12T04:23:16.402Z,90.50
2019-03-12T04:25:45.223Z,90.00
2019-03-12T04:28:13.815Z,90.30
2019-03-12T04:30:42.409Z,90.20
2019-03-12T04:33:40.078Z,90.50
2019-03-12T04:36:08.692Z,90.90
2019-03-12T04:38:37.243Z,90.90
2019-03-12T04:41:05.802Z,90.80
2019-03-12T04:43:34.395Z,90.70
2019-03-12T04:46:02.960Z,91.00
2019-03-12T04:48:31.527Z,91.00
2019-03-12T04:51:00.134Z,91.10
2019-03-12T04:53:28.695Z,91.00
2019-03-12T04:55:57.255Z,91.00
2019-03-12T04:58:25.831Z,91.00
2019-03-12T05:00:54.387Z,91.10
2019-03-12T05:03:22.942Z,91.10
2019-03-12T05:05:51.550Z,91.50
2019-03-12T05:08:20.127Z,91.10
2019-03-12T05:10:49.007Z,91.30
2019-03-12T05:13:17.591Z,91.30
2019-03-12T05:15:46.154Z,91.50
2019-03-12T05:18:14.747Z,91.80
2019-03-12T05:20:43.331Z,92.00
2019-03-12T05:23:11.907Z,92.20
2019-03-12T05:25:40.526Z,92.20
2019-03-12T05:28:09.086Z,92.20
2019-03-12T05:30:37.995Z,92.60
2019-03-12T05:33:06.594Z,92.20
2019-03-12T05:35:35.205Z,92.40
2019-03-12T05:38:03.917Z,92.50
2019-03-12T05:40:32.518Z,92.40
2019-03-12T05:43:01.399Z,92.40
2019-03-12T05:45:30.265Z,92.50
2019-03-12T05:47:58.819Z,92.40
2019-03-12T05:50:27.402Z,92.50
2019-03-12T05:53:13.502Z,92.60
2019-03-12T05:55:42.115Z,92.50
2019-03-12T05:58:10.682Z,92.70
2019-03-12T06:00:39.222Z,92.90
2019-03-12T06:03:08.106Z,92.80
2019-03-12T06:05:36.654Z,92.70
2019-03-12T06:08:05.661Z,92.80
2019-03-12T06:10:34.250Z,92.70
2019-03-12T06:13:02.955Z,92.70
2019-03-12T06:15:31.510Z,92.70
2019-03-12T06:18:00.418Z,92.70
2019-03-12T06:20:29.023Z,92.40
2019-03-12T06:22:57.583Z,92.70
2019-03-12T06:25:26.167Z,92.30
2019-03-12T06:27:55.054Z,92.50
2019-03-12T06:30:25.909Z,92.70
2019-03-12T06:32:57.831Z,92.60
2019-03-12T06:35:33.758Z,92.90
2019-03-12T06:38:30.118Z,92.60
2019-03-12T06:41:03.585Z,92.40
2019-03-12T06:43:52.770Z,92.40
2019-03-12T06:46:40.414Z,92.00
2019-03-12T06:49:24.571Z,92.30
2019-03-12T06:52:12.216Z,92.20
2019-03-12T06:55:02.917Z,92.00
2019-03-12T06:58:02.710Z,92.00
2019-03-12T07:00:41.040Z,92.00
2019-03-12T07:03:19.202Z,91.60
2019-03-12T07:05:58.519Z,91.20
2019-03-12T07:08:49.030Z,91.60
2019-03-12T07:11:55.106Z,91.40
2019-03-12T07:14:28.080Z,91.20
2019-03-12T07:17:03.646Z,90.80
2019-03-12T07:19:45.314Z,90.40
2019-03-12T07:22:29.495Z,87.60
2019-03-12T07:25:15.866Z,84.00
2019-03-12T07:27:52.762Z,83.30
2019-03-12T07:30:40.406Z,84.40
2019-03-12T07:33:17.682Z,83.90
2019-03-12T07:36:07.151Z,84.00
2019-03-12T07:39:03.762Z,82.30
2019-03-12T07:41:51.443Z,80.60
2019-03-12T07:44:29.631Z,80.60
2019-03-12T07:47:16.336Z,78.20
2019-03-12T07:50:07.126Z,75.30
2019-03-12T07:52:49.839Z,71.70
2019-03-12T07:55:32.003Z,65.80
2019-03-12T07:58:18.503Z,59.10
2019-03-12T08:01:06.170Z,57.10
2019-03-12T08:04:00.456Z,55.00
2019-03-12T08:06:47.085Z,54.20
2019-03-12T08:09:27.418Z,52.10
2019-03-12T08:12:07.502Z,49.40
2019-03-12T08:14:55.105Z,47.80
2019-03-12T08:17:33.738Z,47.20
2019-03-12T08:20:30.184Z,46.20
2019-03-12T08:23:35.967Z,43.90
2019-03-12T08:26:32.963Z,45.50
2019-03-12T08:29:23.282Z,49.30
2019-03-12T08:31:58.694Z,54.40
2019-03-12T08:34:49.210Z,59.40
2019-03-12T08:37:39.751Z,62.20
2019-03-12T08:40:22.285Z,65.10
2019-03-12T08:43:03.475Z,66.00
2019-03-12T08:45:39.983Z,66.50
2019-03-12T08:48:27.638Z,66.30
2019-03-12T08:51:18.426Z,67.50
2019-03-12T08:53:58.350Z,67.20
2019-03-12T08:57:04.226Z,67.70
2019-03-12T08:59:48.642Z,63.60
2019-03-12T09:02:34.798Z,62.70
2019-03-12T09:05:31.372Z,59.80
2019-03-12T09:08:34.768Z,57.10
2019-03-12T09:11:28.612Z,55.10
2019-03-12T09:14:22.082Z,50.40
2019-03-12T09:17:08.767Z,47.00
2019-03-12T09:19:54.527Z,47.00
2019-03-12T09:22:40.702Z,45.30
2019-03-12T09:25:27.006Z,43.50
2019-03-12T09:28:18.831Z,42.40
2019-03-12T09:31:05.278Z,42.60
2019-03-12T09:33:56.010Z,45.60
2019-03-12T09:36:32.762Z,47.20
2019-03-12T09:39:22.492Z,48.10
2019-03-12T09:42:08.567Z,45.20
2019-03-12T09:44:58.985Z,42.10
2019-03-12T09:47:34.906Z,41.20
2019-03-12T09:50:31.783Z,39.60
2019-03-12T09:53:22.272Z,38.90
2019-03-12T09:56:02.426Z,41.60
2019-03-12T09:58:38.298Z,43.40
2019-03-12T10:01:16.896Z,44.30
2019-03-12T10:03:58.114Z,45.60
2019-03-12T10:06:48.850Z,46.80
2019-03-12T10:09:39.809Z,47.50
2019-03-12T10:12:18.984Z,48.20
2019-03-12T10:15:06.159Z,43.00
2019-03-12T10:18:12.066Z,41.20
2019-03-12T10:20:57.675Z,37.20
2019-03-12T10:23:44.226Z,36.20
2019-03-12T10:26:28.462Z,36.60
2019-03-12T10:29:11.662Z,35.70
2019-03-12T10:32:05.395Z,36.90
2019-03-12T10:34:59.243Z,36.10
2019-03-12T10:37:36.923Z,39.90
2019-03-12T10:40:26.494Z,42.20
2019-03-12T10:43:10.467Z,45.40
2019-03-12T10:45:58.117Z,43.80
2019-03-12T10:48:27.426Z,42.40
2019-03-12T10:50:55.958Z,37.80
2019-03-12T10:53:24.571Z,38.90
2019-03-12T10:55:53.155Z,40.30
2019-03-12T10:58:21.718Z,40.00
2019-03-12T11:00:50.331Z,42.80
2019-03-12T11:03:19.002Z,42.30
2019-03-12T11:05:47.564Z,41.80
2019-03-12T11:08:16.130Z,41.60
2019-03-12T11:10:44.728Z,43.90
2019-03-12T11:13:14.860Z,42.70
2019-03-12T11:15:43.747Z,41.30
2019-03-12T11:18:12.336Z,42.40
2019-03-12T11:20:40.958Z,40.40
2019-03-12T11:23:09.789Z,40.10
2019-03-12T11:25:38.385Z,37.70
2019-03-12T11:28:06.945Z,38.30
2019-03-12T11:30:35.523Z,37.70
2019-03-12T11:33:04.105Z,35.20
2019-03-12T11:35:39.278Z,36.50
2019-03-12T11:38:03.020Z,40.90
2019-03-12T11:40:32.737Z,41.20
2019-03-12T11:43:01.715Z,40.30
2019-03-12T11:45:36.411Z,42.50
2019-03-12T11:48:01.043Z,40.70
2019-03-12T11:50:29.851Z,38.80
2019-03-12T11:53:00.006Z,37.50
2019-03-12T11:55:28.717Z,37.90
2019-03-12T11:57:57.265Z,37.70
2019-03-12T12:00:37.024Z,38.50
2019-03-12T12:03:05.611Z,38.00
2019-03-12T12:05:34.195Z,38.00
2019-03-12T12:08:02.905Z,36.20
2019-03-12T12:10:31.740Z,34.30
2019-03-12T12:13:00.315Z,34.20
2019-03-12T12:15:28.899Z,32.20
2019-03-12T12:17:57.467Z,32.30
2019-03-12T12:20:30.156Z,33.70
2019-03-12T12:22:56.330Z,32.30
2019-03-12T12:25:24.889Z,29.50
2019-03-12T12:27:53.842Z,30.00
2019-03-12T12:30:22.430Z,31.00
2019-03-12T12:32:51.360Z,30.60
2019-03-12T12:35:19.941Z,31.50
2019-03-12T12:37:48.499Z,32.30
2019-03-12T12:40:17.086Z,33.50
2019-03-12T12:42:45.688Z,33.30
2019-03-12T12:45:16.105Z,35.90
2019-03-12T12:47:44.734Z,36.00
2019-03-12T12:50:13.514Z,34.20
2019-03-12T12:52:42.070Z,33.50
2019-03-12T12:55:11.797Z,34.00
2019-03-12T12:57:40.550Z,32.70
2019-03-12T13:00:12.923Z,31.70
2019-03-12T13:02:41.482Z,30.80
2019-03-12T13:05:10.075Z,31.50
2019-03-12T13:07:38.630Z,31.10
2019-03-12T13:10:08.622Z,31.60
2019-03-12T13:12:37.278Z,31.50
2019-03-12T13:15:06.481Z,32.10
2019-03-12T13:17:35.039Z,31.10
2019-03-12T13:20:03.690Z,31.80
2019-03-12T13:22:32.257Z,31.50
2019-03-12T13:25:00.911Z,32.40
2019-03-12T13:27:41.289Z,33.80
2019-03-12T13:29:59.767Z,32.40
2019-03-12T13:32:28.462Z,34.60
2019-03-12T13:34:57.322Z,33.90
2019-03-12T13:37:25.898Z,34.20
2019-03-12T13:39:54.539Z,34.00
2019-03-12T13:42:23.277Z,34.70
2019-03-12T13:44:52.328Z,37.20
2019-03-12T13:47:20.951Z,37.80
2019-03-12T13:49:49.715Z,38.80
2019-03-12T13:52:18.400Z,38.50
2019-03-12T13:54:46.985Z,39.40
2019-03-12T13:57:15.582Z,40.40
2019-03-12T13:59:44.138Z,42.10
2019-03-12T14:02:12.730Z,42.70
2019-03-12T14:04:41.318Z,42.90
2019-03-12T14:07:09.878Z,43.70
2019-03-12T14:09:38.771Z,43.00
2019-03-12T14:12:07.350Z,43.50
2019-03-12T14:14:36.236Z,43.70
2019-03-12T14:17:04.815Z,43.10
2019-03-12T14:19:33.394Z,42.70
2019-03-12T14:22:05.203Z,43.90
2019-03-12T14:24:34.051Z,43.60
2019-03-12T14:27:02.975Z,43.40
2019-03-12T14:29:31.530Z,42.80
2019-03-12T14:32:00.174Z,43.60
2019-03-12T14:34:28.787Z,44.40
2019-03-12T14:36:57.352Z,43.00
2019-03-12T14:39:25.903Z,43.40
2019-03-12T14:41:54.494Z,44.00
2019-03-12T14:44:23.430Z,44.80
2019-03-12T14:46:51.995Z,42.70
2019-03-12T14:49:20.639Z,43.50
2019-03-12T14:52:19.848Z,43.30
2019-03-12T14:54:48.436Z,43.70
2019-03-12T14:57:17.052Z,43.60
2019-03-12T14:59:45.625Z,43.50
2019-03-12T15:02:14.206Z,42.80
2019-03-12T15:04:42.817Z,43.50
2019-03-12T15:07:11.490Z,42.90
2019-03-12T15:09:40.045Z,42.30
2019-03-12T15:12:11.642Z,41.60
2019-03-12T15:14:39.015Z,42.60
2019-03-12T15:17:07.578Z,43.50
2019-03-12T15:19:36.190Z,43.00
2019-03-12T15:22:04.770Z,42.80
2019-03-12T15:24:36.028Z,43.00
2019-03-12T15:27:03.607Z,44.10
2019-03-12T15:29:32.189Z,44.70
2019-03-12T15:32:04.457Z,44.20
2019-03-12T15:34:31.147Z,43.80
2019-03-12T15:36:59.738Z,43.80
2019-03-12T15:39:28.549Z,44.80
2019-03-12T15:41:57.117Z,44.50
2019-03-12T15:44:25.707Z,44.50
2019-03-12T15:46:54.262Z,44.60
2019-03-12T15:49:22.819Z,44.80
2019-03-12T15:51:51.407Z,44.60
2019-03-12T15:54:20.328Z,44.10
2019-03-12T15:56:48.999Z,44.20
2019-03-12T15:59:17.750Z,44.80
2019-03-12T16:01:46.306Z,45.10
2019-03-12T16:04:14.863Z,44.20
2019-03-12T16:06:44.405Z,44.30
2019-03-12T16:09:12.962Z,44.60
2019-03-12T16:11:41.582Z,45.00
2019-03-12T16:14:10.421Z,45.30
2019-03-12T16:16:38.979Z,45.10
2019-03-12T16:19:07.666Z,45.10
2019-03-12T16:21:36.569Z,45.80
2019-03-12T16:24:05.231Z,46.30
2019-03-12T16:26:33.942Z,46.40
2019-03-12T16:29:02.569Z,46.90
2019-03-12T16:31:31.311Z,47.70
2019-03-12T16:33:59.871Z,48.10
2019-03-12T16:36:28.462Z,48.70
2019-03-12T16:38:57.013Z,48.30
2019-03-12T16:41:25.566Z,48.40
2019-03-12T16:43:54.234Z,48.20
2019-03-12T16:46:22.814Z,47.90
2019-03-12T16:48:51.397Z,48.10
2019-03-12T16:51:20.025Z,47.80
2019-03-12T16:53:48.586Z,48.30
2019-03-12T16:56:17.134Z,48.00
2019-03-12T16:58:45.730Z,48.00
2019-03-12T17:01:14.293Z,48.00
2019-03-12T17:03:42.854Z,48.80
2019-03-12T17:06:11.426Z,48.40
2019-03-12T17:08:40.031Z,48.70
2019-03-12T17:11:08.586Z,48.90
2019-03-12T17:13:37.189Z,48.90
2019-03-12T17:16:05.808Z,48.90
2019-03-12T17:18:34.403Z,49.20
2019-03-12T17:21:02.983Z,49.40
2019-03-12T17:23:32.398Z,50.10
2019-03-12T17:26:01.218Z,49.80
2019-03-12T17:28:29.786Z,49.80
2019-03-12T17:30:58.346Z,50.10
2019-03-12T17:33:26.947Z,50.00
2019-03-12T17:35:55.599Z,50.40
2019-03-12T17:38:24.159Z,50.70
2019-03-12T17:40:52.778Z,50.50
2019-03-12T17:43:21.370Z,50.50
2019-03-12T17:45:49.925Z,51.00
2019-03-12T17:48:18.561Z,50.80
2019-03-12T17:50:47.138Z,51.80
2019-03-12T17:53:15.699Z,51.30
2019-03-12T17:55:44.254Z,51.30
2019-03-12T17:58:12.846Z,51.40
2019-03-12T18:00:43.089Z,51.80
2019-03-12T18:03:12.153Z,51.80
2019-03-12T18:05:40.847Z,51.90
2019-03-12T18:08:09.458Z,52.80
2019-03-12T18:10:38.031Z,53.10
2019-03-12T18:13:06.699Z,52.60
2019-03-12T18:15:35.570Z,52.80
2019-03-12T18:18:04.190Z,53.30
2019-03-12T18:20:32.753Z,53.90
2019-03-12T18:23:01.314Z,53.60
2019-03-12T18:25:29.961Z,53.90
2019-03-12T18:27:58.591Z,54.20
2019-03-12T18:30:27.175Z,55.00
2019-03-12T18:32:55.758Z,55.20
2019-03-12T18:35:24.370Z,56.00
2019-03-12T18:37:53.419Z,56.00
2019-03-12T18:40:22.010Z,55.40
2019-03-12T18:42:50.601Z,55.70
2019-03-12T18:45:20.573Z,55.80
2019-03-12T18:47:49.246Z,56.30
2019-03-12T18:50:17.955Z,55.70
2019-03-12T18:52:46.536Z,55.60
2019-03-12T18:55:41.395Z,55.60
2019-03-12T18:58:10.127Z,55.60
2019-03-12T19:00:38.906Z,55.90
2019-03-12T19:03:07.474Z,55.90
2019-03-12T19:05:36.159Z,56.50
2019-03-12T19:08:04.826Z,56.90
2019-03-12T19:10:33.708Z,56.60
2019-03-12T19:13:02.281Z,56.60
2019-03-12T19:15:31.433Z,56.50
2019-03-12T19:18:00.078Z,56.00
2019-03-12T19:20:28.954Z,57.00
2019-03-12T19:22:57.582Z,57.30
2019-03-12T19:25:26.262Z,57.60
2019-03-12T19:27:59.914Z,58.10
2019-03-12T19:30:25.360Z,57.90
2019-03-12T19:33:02.679Z,58.30
2019-03-12T19:35:31.299Z,58.70
2019-03-12T19:37:59.986Z,58.80
2019-03-12T19:40:28.690Z,59.10
2019-03-12T19:42:57.487Z,59.20
2019-03-12T19:45:26.034Z,59.80
2019-03-12T19:47:54.614Z,59.70
2019-03-12T19:50:23.190Z,59.90
2019-03-12T19:52:51.747Z,60.80
2019-03-12T19:55:23.089Z,61.10
2019-03-12T19:57:51.970Z,61.30
2019-03-12T20:00:21.942Z,61.10
2019-03-12T20:02:50.611Z,60.70
2019-03-12T20:05:19.307Z,60.90
2019-03-12T20:07:47.881Z,61.40
2019-03-12T20:10:31.295Z,60.70
2019-03-12T20:13:38.745Z,60.80
2019-03-12T20:17:08.162Z,61.70
2019-03-12T20:19:54.187Z,62.90
2019-03-12T20:23:14.587Z,63.00
2019-03-12T20:26:15.266Z,63.20
2019-03-12T20:29:05.187Z,62.10
2019-03-12T20:32:08.690Z,63.00
2019-03-12T20:35:14.543Z,62.50
2019-03-12T20:38:24.798Z,62.50
2019-03-12T20:41:22.687Z,62.80
2019-03-12T20:44:34.390Z,63.10
2019-03-12T20:47:49.534Z,63.60
2019-03-12T20:51:05.719Z,64.20
2019-03-12T20:54:11.021Z,65.00
2019-03-12T20:57:15.861Z,65.80
2019-03-12T21:00:41.981Z,66.20
2019-03-12T21:03:41.355Z,66.90
2019-03-12T21:07:02.814Z,67.90
2019-03-12T21:10:07.615Z,67.70
2019-03-12T21:13:12.434Z,68.20
2019-03-12T21:16:11.335Z,68.80
2019-03-12T21:19:10.240Z,69.20
2019-03-12T21:22:18.059Z,68.60
2019-03-12T21:25:20.838Z,68.40
2019-03-12T21:28:32.994Z,68.40
2019-03-12T21:31:01.578Z,68.90
2019-03-12T21:33:30.416Z,68.20
2019-03-12T21:35:59.006Z,68.30
2019-03-12T21:38:27.590Z,68.80
2019-03-12T21:40:56.199Z,68.20
2019-03-12T21:43:25.066Z,68.70
2019-03-12T21:45:53.670Z,68.60
2019-03-12T21:48:22.522Z,67.10
2019-03-12T21:50:51.171Z,68.60
2019-03-12T21:53:20.047Z,68.20
2019-03-12T21:55:48.706Z,67.50
2019-03-12T21:58:17.332Z,67.30
2019-03-12T22:00:45.954Z,66.70
2019-03-12T22:03:16.380Z,66.30
2019-03-12T22:05:44.815Z,65.80
2019-03-12T22:08:13.398Z,65.80
2019-03-12T22:10:42.223Z,64.90
2019-03-12T22:13:10.778Z,66.10
2019-03-12T22:15:39.354Z,65.00
2019-03-12T22:18:07.954Z,65.10
2019-03-12T22:20:37.455Z,65.60
2019-03-12T22:23:10.843Z,65.70
2019-03-12T22:25:39.395Z,66.20
2019-03-12T22:28:07.969Z,66.00
2019-03-12T22:30:36.575Z,66.20
2019-03-12T22:33:05.136Z,66.00
2019-03-12T22:35:33.703Z,66.40
2019-03-12T22:38:02.293Z,67.00
2019-03-12T22:40:30.856Z,66.10
2019-03-12T22:42:59.870Z,66.50
2019-03-12T22:45:28.478Z,66.50
2019-03-12T22:47:57.044Z,68.10
2019-03-12T22:50:25.595Z,68.00
2019-03-12T22:52:54.538Z,68.90
2019-03-12T22:55:23.085Z,68.00
2019-03-12T22:57:51.961Z,70.50
